sensor_id;sensor_type;location;lat;lon;timestamp;P1;durP1;ratioP1;P2;durP2;ratioP2
2638;SDS011;1329;51.384;7.122;2024-02-26T00:02:25;3.07;;;2.77;;
2638;SDS011;1329;51.384;7.122;2024-02-26T00:04:52;4.23;;;3.63;;
2638;SDS011;1329;51.384;7.122;2024-02-26T00:07:19;2.60;;;2.40;;
2638;SDS011;1329;51.384;7.122;2024-02-26T00:09:47;2.33;;;2.10;;
2638;SDS011;1329;51.384;7.122;2024-02-26T00:12:14;2.23;;;2.03;;
2638;SDS011;1329;51.384;7.122;2024-02-26T00:14:42;2.30;;;2.10;;
2638;SDS011;1329;51.384;7.122;2024-02-26T00:17:11;2.83;;;2.20;;
2638;SDS011;1329;51.384;7.122;2024-02-26T00:19:40;2.33;;;2.03;;
2638;SDS011;1329;51.384;7.122;2024-02-26T00:22:08;3.27;;;2.23;;
2638;SDS011;1329;51.384;7.122;2024-02-26T00:24:36;1.80;;;1.70;;
2638;SDS011;1329;51.384;7.122;2024-02-26T00:27:03;2.10;;;1.90;;
2638;SDS011;1329;51.384;7.122;2024-02-26T00:29:31;2.23;;;1.90;;
2638;SDS011;1329;51.384;7.122;2024-02-26T00:31:58;2.43;;;1.87;;
2638;SDS011;1329;51.384;7.122;2024-02-26T00:34:26;3.10;;;1.80;;
2638;SDS011;1329;51.384;7.122;2024-02-26T00:36:55;2.30;;;1.77;;
2638;SDS011;1329;51.384;7.122;2024-02-26T00:39:22;3.00;;;2.57;;
2638;SDS011;1329;51.384;7.122;2024-02-26T00:41:49;2.90;;;2.20;;
2638;SDS011;1329;51.384;7.122;2024-02-26T00:44:17;1.77;;;1.60;;
2638;SDS011;1329;51.384;7.122;2024-02-26T00:46:45;1.70;;;1.60;;
2638;SDS011;1329;51.384;7.122;2024-02-26T00:49:12;2.20;;;1.80;;
2638;SDS011;1329;51.384;7.122;2024-02-26T00:51:39;1.97;;;1.87;;
2638;SDS011;1329;51.384;7.122;2024-02-26T00:54:08;2.27;;;2.03;;
2638;SDS011;1329;51.384;7.122;2024-02-26T00:56:36;2.77;;;2.00;;
2638;SDS011;1329;51.384;7.122;2024-02-26T00:59:03;2.83;;;2.10;;
2638;SDS011;1329;51.384;7.122;2024-02-26T01:01:31;2.40;;;2.03;;
2638;SDS011;1329;51.384;7.122;2024-02-26T01:03:58;2.30;;;1.77;;
2638;SDS011;1329;51.384;7.122;2024-02-26T01:06:26;3.63;;;3.33;;
2638;SDS011;1329;51.384;7.122;2024-02-26T01:08:53;2.40;;;2.20;;
2638;SDS011;1329;51.384;7.122;2024-02-26T01:11:22;2.63;;;2.10;;
2638;SDS011;1329;51.384;7.122;2024-02-26T01:13:50;2.93;;;2.30;;
2638;SDS011;1329;51.384;7.122;2024-02-26T01:16:21;2.10;;;1.70;;
2638;SDS011;1329;51.384;7.122;2024-02-26T01:18:49;3.90;;;2.40;;
2638;SDS011;1329;51.384;7.122;2024-02-26T01:21:16;2.10;;;1.60;;
2638;SDS011;1329;51.384;7.122;2024-02-26T01:23:44;2.10;;;1.90;;
2638;SDS011;1329;51.384;7.122;2024-02-26T01:26:11;1.60;;;1.50;;
2638;SDS011;1329;51.384;7.122;2024-02-26T01:28:40;1.57;;;1.40;;
2638;SDS011;1329;51.384;7.122;2024-02-26T01:31:08;1.67;;;1.53;;
2638;SDS011;1329;51.384;7.122;2024-02-26T01:33:36;2.77;;;2.00;;
2638;SDS011;1329;51.384;7.122;2024-02-26T01:36:04;2.47;;;1.93;;
2638;SDS011;1329;51.384;7.122;2024-02-26T01:38:31;2.30;;;1.80;;
2638;SDS011;1329;51.384;7.122;2024-02-26T01:40:59;3.07;;;2.13;;
2638;SDS011;1329;51.384;7.122;2024-02-26T01:43:26;2.93;;;2.10;;
2638;SDS011;1329;51.384;7.122;2024-02-26T01:45:55;2.70;;;2.10;;
2638;SDS011;1329;51.384;7.122;2024-02-26T01:48:23;2.20;;;2.00;;
2638;SDS011;1329;51.384;7.122;2024-02-26T01:50:51;2.80;;;2.00;;
2638;SDS011;1329;51.384;7.122;2024-02-26T01:53:18;1.90;;;1.73;;
2638;SDS011;1329;51.384;7.122;2024-02-26T01:55:47;2.67;;;1.97;;
2638;SDS011;1329;51.384;7.122;2024-02-26T01:58:14;2.90;;;1.87;;
2638;SDS011;1329;51.384;7.122;2024-02-26T02:00:42;1.70;;;1.60;;
2638;SDS011;1329;51.384;7.122;2024-02-26T02:03:12;1.73;;;1.60;;
2638;SDS011;1329;51.384;7.122;2024-02-26T02:05:39;2.13;;;1.60;;
2638;SDS011;1329;51.384;7.122;2024-02-26T02:08:07;1.77;;;1.63;;
2638;SDS011;1329;51.384;7.122;2024-02-26T02:10:35;2.13;;;1.70;;
2638;SDS011;1329;51.384;7.122;2024-02-26T02:13:04;1.80;;;1.60;;
2638;SDS011;1329;51.384;7.122;2024-02-26T02:15:32;1.60;;;1.50;;
2638;SDS011;1329;51.384;7.122;2024-02-26T02:18:00;2.03;;;1.67;;
2638;SDS011;1329;51.384;7.122;2024-02-26T02:20:33;1.60;;;1.50;;
2638;SDS011;1329;51.384;7.122;2024-02-26T02:23:01;1.50;;;1.40;;
2638;SDS011;1329;51.384;7.122;2024-02-26T02:25:29;2.07;;;1.60;;
2638;SDS011;1329;51.384;7.122;2024-02-26T02:27:56;2.47;;;1.60;;
2638;SDS011;1329;51.384;7.122;2024-02-26T02:30:25;1.60;;;1.50;;
2638;SDS011;1329;51.384;7.122;2024-02-26T02:32:54;2.27;;;1.70;;
2638;SDS011;1329;51.384;7.122;2024-02-26T02:35:23;1.50;;;1.40;;
2638;SDS011;1329;51.384;7.122;2024-02-26T02:37:52;2.40;;;1.70;;
2638;SDS011;1329;51.384;7.122;2024-02-26T02:40:20;2.07;;;1.50;;
2638;SDS011;1329;51.384;7.122;2024-02-26T02:42:48;1.80;;;1.70;;
2638;SDS011;1329;51.384;7.122;2024-02-26T02:45:15;2.10;;;1.70;;
2638;SDS011;1329;51.384;7.122;2024-02-26T02:47:43;2.13;;;1.60;;
2638;SDS011;1329;51.384;7.122;2024-02-26T02:50:10;2.20;;;1.50;;
2638;SDS011;1329;51.384;7.122;2024-02-26T02:52:37;2.40;;;1.70;;
2638;SDS011;1329;51.384;7.122;2024-02-26T02:55:07;2.27;;;1.70;;
2638;SDS011;1329;51.384;7.122;2024-02-26T02:57:34;1.77;;;1.60;;
2638;SDS011;1329;51.384;7.122;2024-02-26T03:00:08;2.33;;;1.80;;
2638;SDS011;1329;51.384;7.122;2024-02-26T03:02:37;1.93;;;1.70;;
2638;SDS011;1329;51.384;7.122;2024-02-26T03:05:04;1.70;;;1.57;;
2638;SDS011;1329;51.384;7.122;2024-02-26T03:07:32;1.93;;;1.57;;
2638;SDS011;1329;51.384;7.122;2024-02-26T03:10:00;2.00;;;1.63;;
2638;SDS011;1329;51.384;7.122;2024-02-26T03:12:29;1.70;;;1.60;;
2638;SDS011;1329;51.384;7.122;2024-02-26T03:14:57;1.90;;;1.70;;
2638;SDS011;1329;51.384;7.122;2024-02-26T03:17:27;2.57;;;1.97;;
2638;SDS011;1329;51.384;7.122;2024-02-26T03:19:55;2.47;;;2.00;;
2638;SDS011;1329;51.384;7.122;2024-02-26T03:22:23;2.07;;;1.70;;
2638;SDS011;1329;51.384;7.122;2024-02-26T03:24:51;2.30;;;2.10;;
2638;SDS011;1329;51.384;7.122;2024-02-26T03:27:18;1.87;;;1.67;;
2638;SDS011;1329;51.384;7.122;2024-02-26T03:29:47;1.80;;;1.70;;
2638;SDS011;1329;51.384;7.122;2024-02-26T03:32:14;2.23;;;2.03;;
2638;SDS011;1329;51.384;7.122;2024-02-26T03:34:42;2.03;;;1.83;;
2638;SDS011;1329;51.384;7.122;2024-02-26T03:37:09;2.07;;;1.90;;
2638;SDS011;1329;51.384;7.122;2024-02-26T03:39:37;2.00;;;1.90;;
2638;SDS011;1329;51.384;7.122;2024-02-26T03:42:04;1.70;;;1.60;;
2638;SDS011;1329;51.384;7.122;2024-02-26T03:44:32;2.37;;;2.00;;
2638;SDS011;1329;51.384;7.122;2024-02-26T03:47:01;2.00;;;1.80;;
2638;SDS011;1329;51.384;7.122;2024-02-26T03:49:28;2.30;;;2.10;;
2638;SDS011;1329;51.384;7.122;2024-02-26T03:51:56;1.93;;;1.83;;
2638;SDS011;1329;51.384;7.122;2024-02-26T03:54:25;1.80;;;1.70;;
2638;SDS011;1329;51.384;7.122;2024-02-26T03:56:52;2.13;;;1.93;;
2638;SDS011;1329;51.384;7.122;2024-02-26T03:59:20;2.13;;;2.00;;
2638;SDS011;1329;51.384;7.122;2024-02-26T04:01:50;2.00;;;1.80;;
2638;SDS011;1329;51.384;7.122;2024-02-26T04:04:18;2.27;;;2.07;;
2638;SDS011;1329;51.384;7.122;2024-02-26T04:06:46;2.03;;;1.77;;
2638;SDS011;1329;51.384;7.122;2024-02-26T04:09:13;2.37;;;2.13;;
2638;SDS011;1329;51.384;7.122;2024-02-26T04:11:41;2.47;;;2.27;;
2638;SDS011;1329;51.384;7.122;2024-02-26T04:14:09;2.20;;;2.00;;
2638;SDS011;1329;51.384;7.122;2024-02-26T04:16:37;2.57;;;2.30;;
2638;SDS011;1329;51.384;7.122;2024-02-26T04:19:05;2.63;;;2.27;;
2638;SDS011;1329;51.384;7.122;2024-02-26T04:21:37;2.20;;;2.00;;
2638;SDS011;1329;51.384;7.122;2024-02-26T04:24:04;2.30;;;2.10;;
2638;SDS011;1329;51.384;7.122;2024-02-26T04:26:32;2.60;;;2.40;;
2638;SDS011;1329;51.384;7.122;2024-02-26T04:28:59;2.40;;;2.20;;
2638;SDS011;1329;51.384;7.122;2024-02-26T04:31:26;2.90;;;2.50;;
2638;SDS011;1329;51.384;7.122;2024-02-26T04:33:54;2.30;;;2.10;;
2638;SDS011;1329;51.384;7.122;2024-02-26T04:36:21;2.60;;;2.40;;
2638;SDS011;1329;51.384;7.122;2024-02-26T04:38:52;2.50;;;2.30;;
2638;SDS011;1329;51.384;7.122;2024-02-26T04:41:20;2.73;;;2.40;;
2638;SDS011;1329;51.384;7.122;2024-02-26T04:43:48;2.20;;;2.00;;
2638;SDS011;1329;51.384;7.122;2024-02-26T04:46:15;2.60;;;2.40;;
2638;SDS011;1329;51.384;7.122;2024-02-26T04:48:43;2.57;;;2.37;;
2638;SDS011;1329;51.384;7.122;2024-02-26T04:51:11;2.90;;;2.70;;
2638;SDS011;1329;51.384;7.122;2024-02-26T04:53:39;2.60;;;2.40;;
2638;SDS011;1329;51.384;7.122;2024-02-26T04:56:07;2.13;;;2.03;;
2638;SDS011;1329;51.384;7.122;2024-02-26T04:58:35;2.70;;;2.50;;
2638;SDS011;1329;51.384;7.122;2024-02-26T05:01:03;2.77;;;2.57;;
2638;SDS011;1329;51.384;7.122;2024-02-26T05:03:30;2.63;;;2.43;;
2638;SDS011;1329;51.384;7.122;2024-02-26T05:05:57;2.73;;;2.53;;
2638;SDS011;1329;51.384;7.122;2024-02-26T05:08:25;2.80;;;2.60;;
2638;SDS011;1329;51.384;7.122;2024-02-26T05:10:53;2.60;;;2.40;;
2638;SDS011;1329;51.384;7.122;2024-02-26T05:13:22;2.90;;;2.60;;
2638;SDS011;1329;51.384;7.122;2024-02-26T05:15:50;2.80;;;2.60;;
2638;SDS011;1329;51.384;7.122;2024-02-26T05:18:17;3.40;;;2.80;;
2638;SDS011;1329;51.384;7.122;2024-02-26T05:20:45;2.80;;;2.60;;
2638;SDS011;1329;51.384;7.122;2024-02-26T05:23:12;3.03;;;2.73;;
2638;SDS011;1329;51.384;7.122;2024-02-26T05:25:39;2.90;;;2.70;;
2638;SDS011;1329;51.384;7.122;2024-02-26T05:28:07;2.87;;;2.67;;
2638;SDS011;1329;51.384;7.122;2024-02-26T05:30:36;2.90;;;2.70;;
2638;SDS011;1329;51.384;7.122;2024-02-26T05:33:05;3.23;;;2.63;;
2638;SDS011;1329;51.384;7.122;2024-02-26T05:35:32;3.00;;;2.80;;
2638;SDS011;1329;51.384;7.122;2024-02-26T05:38:00;3.07;;;2.77;;
2638;SDS011;1329;51.384;7.122;2024-02-26T05:40:30;3.20;;;2.90;;
2638;SDS011;1329;51.384;7.122;2024-02-26T05:42:57;3.37;;;3.00;;
2638;SDS011;1329;51.384;7.122;2024-02-26T05:45:27;2.70;;;2.50;;
2638;SDS011;1329;51.384;7.122;2024-02-26T05:47:56;3.40;;;2.83;;
2638;SDS011;1329;51.384;7.122;2024-02-26T05:50:23;3.67;;;3.20;;
2638;SDS011;1329;51.384;7.122;2024-02-26T05:52:51;3.07;;;2.83;;
2638;SDS011;1329;51.384;7.122;2024-02-26T05:55:18;3.37;;;3.03;;
2638;SDS011;1329;51.384;7.122;2024-02-26T05:57:45;3.67;;;3.37;;
2638;SDS011;1329;51.384;7.122;2024-02-26T06:00:14;3.13;;;2.83;;
2638;SDS011;1329;51.384;7.122;2024-02-26T06:02:42;3.53;;;3.23;;
2638;SDS011;1329;51.384;7.122;2024-02-26T06:05:11;4.07;;;3.10;;
2638;SDS011;1329;51.384;7.122;2024-02-26T06:07:38;3.50;;;3.20;;
2638;SDS011;1329;51.384;7.122;2024-02-26T06:10:06;6.37;;;3.30;;
2638;SDS011;1329;51.384;7.122;2024-02-26T06:12:35;3.50;;;3.20;;
2638;SDS011;1329;51.384;7.122;2024-02-26T06:15:02;3.63;;;3.33;;
2638;SDS011;1329;51.384;7.122;2024-02-26T06:17:30;3.30;;;3.00;;
2638;SDS011;1329;51.384;7.122;2024-02-26T06:19:59;3.00;;;2.80;;
2638;SDS011;1329;51.384;7.122;2024-02-26T06:22:27;3.40;;;3.10;;
2638;SDS011;1329;51.384;7.122;2024-02-26T06:24:56;3.07;;;2.77;;
2638;SDS011;1329;51.384;7.122;2024-02-26T06:27:24;3.67;;;2.70;;
2638;SDS011;1329;51.384;7.122;2024-02-26T06:29:51;2.80;;;2.60;;
2638;SDS011;1329;51.384;7.122;2024-02-26T06:32:18;4.73;;;2.80;;
2638;SDS011;1329;51.384;7.122;2024-02-26T06:34:46;3.30;;;3.00;;
2638;SDS011;1329;51.384;7.122;2024-02-26T06:37:13;3.10;;;2.80;;
2638;SDS011;1329;51.384;7.122;2024-02-26T06:39:41;3.90;;;3.07;;
2638;SDS011;1329;51.384;7.122;2024-02-26T06:42:09;2.67;;;2.47;;
2638;SDS011;1329;51.384;7.122;2024-02-26T06:44:36;3.00;;;2.80;;
2638;SDS011;1329;51.384;7.122;2024-02-26T06:47:04;2.90;;;2.70;;
2638;SDS011;1329;51.384;7.122;2024-02-26T06:49:31;2.93;;;2.73;;
2638;SDS011;1329;51.384;7.122;2024-02-26T06:51:59;3.57;;;3.20;;
2638;SDS011;1329;51.384;7.122;2024-02-26T06:54:26;3.13;;;2.93;;
2638;SDS011;1329;51.384;7.122;2024-02-26T06:56:58;3.33;;;3.03;;
2638;SDS011;1329;51.384;7.122;2024-02-26T06:59:25;3.10;;;2.77;;
2638;SDS011;1329;51.384;7.122;2024-02-26T07:01:53;3.03;;;2.67;;
2638;SDS011;1329;51.384;7.122;2024-02-26T07:04:21;3.50;;;2.83;;
2638;SDS011;1329;51.384;7.122;2024-02-26T07:06:48;4.43;;;3.30;;
2638;SDS011;1329;51.384;7.122;2024-02-26T07:09:15;3.23;;;2.93;;
2638;SDS011;1329;51.384;7.122;2024-02-26T07:11:43;3.10;;;2.90;;
2638;SDS011;1329;51.384;7.122;2024-02-26T07:14:12;3.20;;;2.90;;
2638;SDS011;1329;51.384;7.122;2024-02-26T07:16:39;3.20;;;2.90;;
2638;SDS011;1329;51.384;7.122;2024-02-26T07:19:06;3.30;;;3.00;;
2638;SDS011;1329;51.384;7.122;2024-02-26T07:21:34;3.60;;;3.30;;
2638;SDS011;1329;51.384;7.122;2024-02-26T07:24:01;3.50;;;3.20;;
2638;SDS011;1329;51.384;7.122;2024-02-26T07:26:29;3.43;;;3.00;;
2638;SDS011;1329;51.384;7.122;2024-02-26T07:28:56;3.90;;;3.50;;
2638;SDS011;1329;51.384;7.122;2024-02-26T07:31:26;3.40;;;3.10;;
2638;SDS011;1329;51.384;7.122;2024-02-26T07:33:54;3.10;;;2.90;;
2638;SDS011;1329;51.384;7.122;2024-02-26T07:36:21;4.17;;;3.23;;
2638;SDS011;1329;51.384;7.122;2024-02-26T07:38:48;3.47;;;3.17;;
2638;SDS011;1329;51.384;7.122;2024-02-26T07:41:17;3.07;;;2.87;;
2638;SDS011;1329;51.384;7.122;2024-02-26T07:43:44;3.80;;;2.87;;
2638;SDS011;1329;51.384;7.122;2024-02-26T07:46:12;3.07;;;2.77;;
2638;SDS011;1329;51.384;7.122;2024-02-26T07:48:41;3.33;;;3.13;;
2638;SDS011;1329;51.384;7.122;2024-02-26T07:51:08;3.43;;;3.13;;
2638;SDS011;1329;51.384;7.122;2024-02-26T07:53:38;3.33;;;3.03;;
2638;SDS011;1329;51.384;7.122;2024-02-26T07:56:06;3.63;;;3.33;;
2638;SDS011;1329;51.384;7.122;2024-02-26T07:58:34;3.47;;;3.23;;
2638;SDS011;1329;51.384;7.122;2024-02-26T08:01:01;3.80;;;3.50;;
2638;SDS011;1329;51.384;7.122;2024-02-26T08:03:29;3.43;;;3.13;;
2638;SDS011;1329;51.384;7.122;2024-02-26T08:05:58;3.27;;;3.07;;
2638;SDS011;1329;51.384;7.122;2024-02-26T08:08:26;4.00;;;3.60;;
2638;SDS011;1329;51.384;7.122;2024-02-26T08:10:54;3.67;;;3.37;;
2638;SDS011;1329;51.384;7.122;2024-02-26T08:13:21;4.87;;;4.47;;
2638;SDS011;1329;51.384;7.122;2024-02-26T08:15:49;4.23;;;3.87;;
2638;SDS011;1329;51.384;7.122;2024-02-26T08:18:16;5.33;;;4.87;;
2638;SDS011;1329;51.384;7.122;2024-02-26T08:20:44;5.83;;;5.23;;
2638;SDS011;1329;51.384;7.122;2024-02-26T08:23:13;6.63;;;5.97;;
2638;SDS011;1329;51.384;7.122;2024-02-26T08:25:40;6.10;;;5.60;;
2638;SDS011;1329;51.384;7.122;2024-02-26T08:28:07;5.97;;;5.20;;
2638;SDS011;1329;51.384;7.122;2024-02-26T08:30:36;6.70;;;5.50;;
2638;SDS011;1329;51.384;7.122;2024-02-26T08:33:04;6.17;;;5.50;;
2638;SDS011;1329;51.384;7.122;2024-02-26T08:35:31;5.83;;;5.10;;
2638;SDS011;1329;51.384;7.122;2024-02-26T08:37:58;5.77;;;5.27;;
2638;SDS011;1329;51.384;7.122;2024-02-26T08:40:27;5.50;;;5.00;;
2638;SDS011;1329;51.384;7.122;2024-02-26T08:42:55;5.00;;;4.60;;
2638;SDS011;1329;51.384;7.122;2024-02-26T08:45:22;5.07;;;4.67;;
2638;SDS011;1329;51.384;7.122;2024-02-26T08:47:52;13.37;;;7.23;;
2638;SDS011;1329;51.384;7.122;2024-02-26T08:50:19;5.60;;;5.00;;
2638;SDS011;1329;51.384;7.122;2024-02-26T08:52:47;4.73;;;4.33;;
2638;SDS011;1329;51.384;7.122;2024-02-26T08:55:16;5.43;;;4.93;;
2638;SDS011;1329;51.384;7.122;2024-02-26T08:57:45;4.30;;;3.90;;
2638;SDS011;1329;51.384;7.122;2024-02-26T09:00:12;4.30;;;3.90;;
2638;SDS011;1329;51.384;7.122;2024-02-26T09:02:43;4.17;;;3.83;;
2638;SDS011;1329;51.384;7.122;2024-02-26T09:05:10;4.43;;;4.03;;
2638;SDS011;1329;51.384;7.122;2024-02-26T09:07:37;4.27;;;3.97;;
2638;SDS011;1329;51.384;7.122;2024-02-26T09:10:05;4.33;;;4.03;;
2638;SDS011;1329;51.384;7.122;2024-02-26T09:12:35;4.37;;;4.03;;
2638;SDS011;1329;51.384;7.122;2024-02-26T09:15:05;4.47;;;4.17;;
2638;SDS011;1329;51.384;7.122;2024-02-26T09:17:36;4.57;;;4.17;;
2638;SDS011;1329;51.384;7.122;2024-02-26T09:20:04;4.57;;;4.13;;
2638;SDS011;1329;51.384;7.122;2024-02-26T09:22:35;9.75;;;8.45;;
2638;SDS011;1329;51.384;7.122;2024-02-26T09:25:04;9.37;;;7.00;;
2638;SDS011;1329;51.384;7.122;2024-02-26T09:27:32;5.77;;;5.17;;
2638;SDS011;1329;51.384;7.122;2024-02-26T09:29:59;5.83;;;5.27;;
2638;SDS011;1329;51.384;7.122;2024-02-26T09:32:28;5.30;;;4.80;;
2638;SDS011;1329;51.384;7.122;2024-02-26T09:34:55;5.53;;;4.73;;
2638;SDS011;1329;51.384;7.122;2024-02-26T09:37:23;5.60;;;4.70;;
2638;SDS011;1329;51.384;7.122;2024-02-26T09:39:50;5.67;;;4.50;;
2638;SDS011;1329;51.384;7.122;2024-02-26T09:42:18;4.90;;;4.50;;
2638;SDS011;1329;51.384;7.122;2024-02-26T09:44:46;4.27;;;3.90;;
2638;SDS011;1329;51.384;7.122;2024-02-26T09:47:18;4.83;;;4.43;;
2638;SDS011;1329;51.384;7.122;2024-02-26T09:49:47;4.87;;;4.47;;
2638;SDS011;1329;51.384;7.122;2024-02-26T09:52:17;5.70;;;5.10;;
2638;SDS011;1329;51.384;7.122;2024-02-26T09:54:46;5.87;;;5.27;;
2638;SDS011;1329;51.384;7.122;2024-02-26T09:57:14;5.27;;;4.80;;
2638;SDS011;1329;51.384;7.122;2024-02-26T09:59:43;4.37;;;4.07;;
2638;SDS011;1329;51.384;7.122;2024-02-26T10:02:13;4.93;;;4.53;;
2638;SDS011;1329;51.384;7.122;2024-02-26T10:04:41;5.07;;;4.67;;
2638;SDS011;1329;51.384;7.122;2024-02-26T10:07:12;5.83;;;5.23;;
2638;SDS011;1329;51.384;7.122;2024-02-26T10:09:40;5.23;;;4.73;;
2638;SDS011;1329;51.384;7.122;2024-02-26T10:12:08;5.67;;;5.17;;
2638;SDS011;1329;51.384;7.122;2024-02-26T10:14:37;5.33;;;4.93;;
2638;SDS011;1329;51.384;7.122;2024-02-26T10:17:06;5.47;;;4.97;;
2638;SDS011;1329;51.384;7.122;2024-02-26T10:19:34;6.17;;;5.67;;
2638;SDS011;1329;51.384;7.122;2024-02-26T10:22:02;5.73;;;5.23;;
2638;SDS011;1329;51.384;7.122;2024-02-26T10:24:31;6.40;;;5.80;;
2638;SDS011;1329;51.384;7.122;2024-02-26T10:26:59;5.80;;;5.30;;
2638;SDS011;1329;51.384;7.122;2024-02-26T10:29:28;10.13;;;8.40;;
2638;SDS011;1329;51.384;7.122;2024-02-26T10:31:56;6.60;;;6.00;;
2638;SDS011;1329;51.384;7.122;2024-02-26T10:34:23;7.17;;;6.47;;
2638;SDS011;1329;51.384;7.122;2024-02-26T10:36:51;6.47;;;5.87;;
2638;SDS011;1329;51.384;7.122;2024-02-26T10:39:18;7.00;;;5.93;;
2638;SDS011;1329;51.384;7.122;2024-02-26T10:41:47;6.70;;;6.10;;
2638;SDS011;1329;51.384;7.122;2024-02-26T10:44:15;10.53;;;8.60;;
2638;SDS011;1329;51.384;7.122;2024-02-26T10:46:42;7.67;;;6.83;;
2638;SDS011;1329;51.384;7.122;2024-02-26T10:49:13;7.47;;;6.77;;
2638;SDS011;1329;51.384;7.122;2024-02-26T10:51:44;7.30;;;6.43;;
2638;SDS011;1329;51.384;7.122;2024-02-26T10:54:17;11.80;;;8.53;;
2638;SDS011;1329;51.384;7.122;2024-02-26T10:56:47;9.87;;;8.13;;
2638;SDS011;1329;51.384;7.122;2024-02-26T10:59:18;13.10;;;10.53;;
2638;SDS011;1329;51.384;7.122;2024-02-26T11:01:47;14.43;;;10.80;;
2638;SDS011;1329;51.384;7.122;2024-02-26T11:04:15;9.80;;;7.53;;
2638;SDS011;1329;51.384;7.122;2024-02-26T11:06:43;8.43;;;7.53;;
2638;SDS011;1329;51.384;7.122;2024-02-26T11:09:12;7.37;;;6.67;;
2638;SDS011;1329;51.384;7.122;2024-02-26T11:11:42;7.83;;;7.13;;
2638;SDS011;1329;51.384;7.122;2024-02-26T11:14:11;7.93;;;7.20;;
2638;SDS011;1329;51.384;7.122;2024-02-26T11:16:40;6.93;;;6.37;;
2638;SDS011;1329;51.384;7.122;2024-02-26T11:19:08;9.90;;;6.83;;
2638;SDS011;1329;51.384;7.122;2024-02-26T11:21:39;7.80;;;6.80;;
2638;SDS011;1329;51.384;7.122;2024-02-26T11:24:07;7.80;;;6.87;;
2638;SDS011;1329;51.384;7.122;2024-02-26T11:26:39;7.43;;;6.73;;
2638;SDS011;1329;51.384;7.122;2024-02-26T11:29:15;8.67;;;7.83;;
2638;SDS011;1329;51.384;7.122;2024-02-26T11:31:47;8.50;;;7.70;;
2638;SDS011;1329;51.384;7.122;2024-02-26T11:34:16;10.17;;;9.17;;
2638;SDS011;1329;51.384;7.122;2024-02-26T11:36:44;16.30;;;13.63;;
2638;SDS011;1329;51.384;7.122;2024-02-26T11:39:12;12.67;;;11.20;;
2638;SDS011;1329;51.384;7.122;2024-02-26T11:41:41;10.33;;;8.73;;
2638;SDS011;1329;51.384;7.122;2024-02-26T11:44:08;9.50;;;8.60;;
2638;SDS011;1329;51.384;7.122;2024-02-26T11:46:39;10.03;;;9.03;;
2638;SDS011;1329;51.384;7.122;2024-02-26T11:51:58;9.60;;;8.67;;
2638;SDS011;1329;51.384;7.122;2024-02-26T11:54:38;10.67;;;8.73;;
2638;SDS011;1329;51.384;7.122;2024-02-26T11:57:22;11.97;;;10.80;;
2638;SDS011;1329;51.384;7.122;2024-02-26T11:59:50;10.37;;;9.20;;
2638;SDS011;1329;51.384;7.122;2024-02-26T12:05:15;18.80;;;16.33;;
2638;SDS011;1329;51.384;7.122;2024-02-26T12:08:00;13.00;;;11.70;;
2638;SDS011;1329;51.384;7.122;2024-02-26T12:10:32;11.37;;;10.27;;
2638;SDS011;1329;51.384;7.122;2024-02-26T12:13:06;14.83;;;13.33;;
2638;SDS011;1329;51.384;7.122;2024-02-26T12:15:37;11.63;;;10.47;;
2638;SDS011;1329;51.384;7.122;2024-02-26T12:18:10;10.17;;;9.17;;
2638;SDS011;1329;51.384;7.122;2024-02-26T12:20:43;10.97;;;9.87;;
2638;SDS011;1329;51.384;7.122;2024-02-26T12:23:14;10.10;;;9.10;;
2638;SDS011;1329;51.384;7.122;2024-02-26T12:25:43;9.53;;;8.63;;
2638;SDS011;1329;51.384;7.122;2024-02-26T12:28:13;9.40;;;8.40;;
2638;SDS011;1329;51.384;7.122;2024-02-26T12:30:41;9.97;;;8.37;;
2638;SDS011;1329;51.384;7.122;2024-02-26T12:33:09;9.37;;;8.50;;
2638;SDS011;1329;51.384;7.122;2024-02-26T12:35:37;10.40;;;9.40;;
2638;SDS011;1329;51.384;7.122;2024-02-26T12:38:04;11.50;;;10.30;;
2638;SDS011;1329;51.384;7.122;2024-02-26T12:40:31;11.23;;;10.13;;
2638;SDS011;1329;51.384;7.122;2024-02-26T12:42:59;11.80;;;10.70;;
2638;SDS011;1329;51.384;7.122;2024-02-26T12:45:27;11.47;;;10.37;;
2638;SDS011;1329;51.384;7.122;2024-02-26T12:47:55;10.97;;;9.87;;
2638;SDS011;1329;51.384;7.122;2024-02-26T12:50:26;10.47;;;9.50;;
2638;SDS011;1329;51.384;7.122;2024-02-26T12:52:54;11.57;;;10.47;;
2638;SDS011;1329;51.384;7.122;2024-02-26T12:55:21;11.63;;;10.43;;
2638;SDS011;1329;51.384;7.122;2024-02-26T12:57:51;11.33;;;10.20;;
2638;SDS011;1329;51.384;7.122;2024-02-26T13:00:20;11.00;;;9.90;;
2638;SDS011;1329;51.384;7.122;2024-02-26T13:02:50;9.93;;;9.00;;
2638;SDS011;1329;51.384;7.122;2024-02-26T13:05:19;11.13;;;10.13;;
2638;SDS011;1329;51.384;7.122;2024-02-26T13:07:49;12.97;;;11.57;;
2638;SDS011;1329;51.384;7.122;2024-02-26T13:10:18;11.23;;;10.20;;
2638;SDS011;1329;51.384;7.122;2024-02-26T13:12:46;13.27;;;11.93;;
2638;SDS011;1329;51.384;7.122;2024-02-26T13:15:19;11.93;;;10.50;;
2638;SDS011;1329;51.384;7.122;2024-02-26T13:17:47;11.20;;;10.17;;
2638;SDS011;1329;51.384;7.122;2024-02-26T13:20:24;12.03;;;10.83;;
2638;SDS011;1329;51.384;7.122;2024-02-26T13:23:03;11.57;;;10.47;;
2638;SDS011;1329;51.384;7.122;2024-02-26T13:25:32;11.23;;;10.13;;
2638;SDS011;1329;51.384;7.122;2024-02-26T13:28:05;10.63;;;9.53;;
2638;SDS011;1329;51.384;7.122;2024-02-26T13:30:34;19.43;;;15.37;;
2638;SDS011;1329;51.384;7.122;2024-02-26T13:33:07;11.20;;;10.10;;
2638;SDS011;1329;51.384;7.122;2024-02-26T13:35:36;11.10;;;10.00;;
2638;SDS011;1329;51.384;7.122;2024-02-26T13:38:05;12.30;;;10.30;;
2638;SDS011;1329;51.384;7.122;2024-02-26T13:40:32;10.87;;;9.87;;
2638;SDS011;1329;51.384;7.122;2024-02-26T13:43:01;9.80;;;8.90;;
2638;SDS011;1329;51.384;7.122;2024-02-26T13:45:30;10.47;;;9.40;;
2638;SDS011;1329;51.384;7.122;2024-02-26T13:48:01;10.53;;;9.53;;
2638;SDS011;1329;51.384;7.122;2024-02-26T13:50:33;9.60;;;8.70;;
2638;SDS011;1329;51.384;7.122;2024-02-26T13:53:00;9.67;;;8.77;;
2638;SDS011;1329;51.384;7.122;2024-02-26T13:55:30;9.90;;;8.93;;
2638;SDS011;1329;51.384;7.122;2024-02-26T13:57:58;10.30;;;9.23;;
2638;SDS011;1329;51.384;7.122;2024-02-26T14:00:30;9.37;;;8.47;;
2638;SDS011;1329;51.384;7.122;2024-02-26T14:03:01;9.80;;;8.80;;
2638;SDS011;1329;51.384;7.122;2024-02-26T14:05:29;9.70;;;8.80;;
2638;SDS011;1329;51.384;7.122;2024-02-26T14:07:59;10.17;;;9.27;;
2638;SDS011;1329;51.384;7.122;2024-02-26T14:10:27;9.60;;;8.57;;
2638;SDS011;1329;51.384;7.122;2024-02-26T14:12:57;8.33;;;7.57;;
2638;SDS011;1329;51.384;7.122;2024-02-26T14:15:26;9.60;;;8.70;;
2638;SDS011;1329;51.384;7.122;2024-02-26T14:17:56;9.17;;;8.27;;
2638;SDS011;1329;51.384;7.122;2024-02-26T14:20:24;8.93;;;8.13;;
2638;SDS011;1329;51.384;7.122;2024-02-26T14:22:52;9.50;;;8.50;;
2638;SDS011;1329;51.384;7.122;2024-02-26T14:25:20;9.50;;;8.50;;
2638;SDS011;1329;51.384;7.122;2024-02-26T14:27:53;9.23;;;8.30;;
2638;SDS011;1329;51.384;7.122;2024-02-26T14:30:26;8.90;;;8.00;;
2638;SDS011;1329;51.384;7.122;2024-02-26T14:32:54;8.13;;;7.43;;
2638;SDS011;1329;51.384;7.122;2024-02-26T14:35:21;8.33;;;7.53;;
2638;SDS011;1329;51.384;7.122;2024-02-26T14:37:54;11.20;;;9.17;;
2638;SDS011;1329;51.384;7.122;2024-02-26T14:40:26;9.43;;;8.13;;
2638;SDS011;1329;51.384;7.122;2024-02-26T14:42:55;10.23;;;8.80;;
2638;SDS011;1329;51.384;7.122;2024-02-26T14:45:24;9.57;;;8.67;;
2638;SDS011;1329;51.384;7.122;2024-02-26T14:47:57;9.13;;;8.23;;
2638;SDS011;1329;51.384;7.122;2024-02-26T14:50:26;9.90;;;9.00;;
2638;SDS011;1329;51.384;7.122;2024-02-26T14:52:54;8.83;;;8.07;;
2638;SDS011;1329;51.384;7.122;2024-02-26T14:55:22;9.77;;;8.87;;
2638;SDS011;1329;51.384;7.122;2024-02-26T14:57:53;9.47;;;8.57;;
2638;SDS011;1329;51.384;7.122;2024-02-26T15:00:20;9.47;;;8.67;;
2638;SDS011;1329;51.384;7.122;2024-02-26T15:02:50;10.43;;;9.43;;
2638;SDS011;1329;51.384;7.122;2024-02-26T15:05:19;9.37;;;8.57;;
2638;SDS011;1329;51.384;7.122;2024-02-26T15:07:47;9.17;;;8.37;;
2638;SDS011;1329;51.384;7.122;2024-02-26T15:10:14;9.43;;;8.53;;
2638;SDS011;1329;51.384;7.122;2024-02-26T15:12:44;10.23;;;9.23;;
2638;SDS011;1329;51.384;7.122;2024-02-26T15:15:13;9.50;;;8.60;;
2638;SDS011;1329;51.384;7.122;2024-02-26T15:17:44;9.73;;;8.73;;
2638;SDS011;1329;51.384;7.122;2024-02-26T15:20:14;10.27;;;9.27;;
2638;SDS011;1329;51.384;7.122;2024-02-26T15:22:47;10.00;;;9.03;;
2638;SDS011;1329;51.384;7.122;2024-02-26T15:25:16;9.23;;;8.33;;
2638;SDS011;1329;51.384;7.122;2024-02-26T15:27:44;8.90;;;8.10;;